MUC | München Airways

 METAR UND TAF INFORMATION

METAR FOR EFIV
ADDS - METARS form results

(1614 UTC 24 March 2019)
Data provider http://aviationweather.gov/metar/data/
 
METAR text: EFIV 241550Z 33005KT CAVOK 01/M05 Q0987
Conditions at: EFIV (IVALO , FI) observed 1550 UTC 24 March 2019
Temperature: 1.0°C (34°F)
Dewpoint: -5.0°C (23°F) [RH = 64%]
Pressure (altimeter): 29.14 inches Hg (987.0 mb)
Winds: from the NNW (330 degrees) at 6 MPH (5 knots; 2.6 m/s)
Visibility: 6 or more miles (10+ km)
Ceiling: ceiling and visibility are OK
Clouds: unknown
Weather: no significant weather observed at this time

METAR text: EFIV 241520Z AUTO 33006KT 290V010 CAVOK 02/M05 Q0987
Conditions at: EFIV (IVALO , FI) observed 1520 UTC 24 March 2019
Temperature: 2.0°C (36°F)
Dewpoint: -5.0°C (23°F) [RH = 60%]
Pressure (altimeter): 29.14 inches Hg (987.0 mb)
Winds: from the NNW (330 degrees) at 7 MPH (6 knots; 3.1 m/s)
Visibility: 6 or more miles (10+ km)
Ceiling: ceiling and visibility are OK
Clouds: unknown
Weather: no significant weather observed at this time

Forecast for: EFIV (IVALO , FI)
Text: TAF EFIV 241435Z 2415/2418 33006KT 9999 BKN030
Forecast period: 1500 to 1800 UTC 24 March 2019
Forecast type: FROM: standard forecast or significant change
Winds: from the NNW (330 degrees) at 7 MPH (6 knots; 3.1 m/s)
Visibility: 6 or more miles 10+ km)
Ceiling: 3000 feet AGL
Clouds: broken clouds at 3000 feet AGL
Weather: no significant weather forecast for this period

 FLUGHAFENKARTE

 RUNWAY INFORMATION
Runway 04 Runway length 8199 ft Runway width 148 ft
Runway elevation 480 ft Runway displaced threshold 0 ft Runway heading 47
Runway 22 Runway length 8199 ft Runway width 148 ft
Runway elevation 463 ft Runway displaced threshold 0 ft Runway heading 227
Runway 08 Runway length 2625 ft Runway width 148 ft
Runway elevation 475 ft Runway displaced threshold 0 ft Runway heading 92
Runway 26 Runway length 2625 ft Runway width 148 ft
Runway elevation 468 ft Runway displaced threshold 0 ft Runway heading 272

 AIRPORT FREQUENCIES
Type ATIS Name ATIS Frequency 123.2 MHZ
Type TWR Name TWR Frequency 118 MHZ

 AIRPORT NEAR NAVIGATION AIDS
Type NDB Name Akujarvi Frequency 432 KHZ